TFM - Tactical Decision Aid
ID: Runway Winds: CIG/VIS Threshold:

KMGM - Montgomery/Dannely F, AL, US

Updated at: 0816 UTC 18 Sep 2021
Latest TAF at: 0520 UTC 18 Sep 2021

TAF Board

Time0753Z 18/09Z 18/10Z 18/11Z 18/12Z 18/13Z 18/14Z 18/15Z 18/16Z 18/17Z 18/18Z 18/19Z 18/20Z 18/21Z>>
Type OBS PRVL PRVL PRVL PRVL PRVL PRVL PRVL PRVL PRVL PRVL
  [PRB30]  
PRVL
  [PRB30]  
PRVL
  [PRB30]  
PRVL
  [PRB30]  
VIS 10 >6 >6 >6 >6 >6 >6 >6 >6 >6 >6
  [3]  
>6
  [3]  
>6
  [3]  
>6
  [3]  
CIG -- 20 20 7 7 7 7 15 15 15 35
  [8]  
35
  [8]  
35
  [8]  
35
  [8]  
Cover FEW BKN BKN BKN BKN BKN BKN BKN BKN BKN BKN
  [OVC]  
BKN
  [OVC]  
BKN
  [OVC]  
BKN
  [OVC]  
FltCat VFR MVFR MVFR IFR IFR IFR IFR MVFR MVFR MVFR VFR
  [IFR]  
VFR
  [IFR]  
VFR
  [IFR]  
VFR
  [IFR]  
WX -- VCSH VCSH VCSH VCSH VCSH VCSH SHRA SHRA SHRA SHRA
  [TSRA BR]  
SHRA
  [TSRA BR]  
SHRA
  [TSRA BR]  
SHRA
  [TSRA BR]  
WDir VRB VRB VRB VRB VRB VRB VRB VRB VRB VRB 150
[150]
150
[150]
150
[150]
150
[150]
WSpd 0 0 0 0 0 0 0 3 3 3 4
  [4]  
4
  [4]  
4
  [4]  
4
  [4]  
WGst -- -- -- -- -- -- -- -- -- -- --
  [--]  
--
  [--]  
--
  [--]  
--
  [--]  

TDA Impact Legend

  None Marginal Slight Moderate High
Visibility (sm) >5 2.9≤X≤5 0.9≤X<2.9 <0.9
Ceiling (100 ft) >30 9.9≤X≤30 4.9≤X<9.9 <4.9
Wind Speed (kt) <15 15≤X<25 25≤X<30 ≥30
Wind Gust (kt) <15 15≤X<25 25≤X<35 ≥35
Weather No Wx Reported VCTS -TS,-FZRA TS,FZRA +TS,+FZRA
TAF
KMGM 180520Z 1806/1906 00000KT P6SM VCSH BKN090
  FM180900 00000KT P6SM VCSH BKN020
  FM181100 00000KT P6SM VCSH BKN007
  FM181500 VRB03KT P6SM SHRA BKN015
  FM181800 15004KT P6SM SHRA BKN035
  PROB30 1818/1824 3SM TSRA BR OVC008CB
  FM190000 VRB03KT P6SM SHRA BKN050
  PROB30 1900/1903 4SM TSRA BR OVC025CB
  FM190300 VRB03KT P6SM VCSH BKN050


METAR
KMGM 180753Z AUTO 00000KT 10SM FEW110 24/22 A3007 RMK AO2 SLP178 T02390222
KMGM 180653Z AUTO 00000KT 10SM FEW120 24/23 A3007 RMK AO2 SLP179 T02440228
KMGM 180553Z AUTO 11004KT 10SM BKN100 24/23 A3008 RMK AO2 SLP184 T02390228 10267 20239 402830233 55003
KMGM 180453Z AUTO 06003KT 10SM SCT100 24/23 A3008 RMK AO2 SLP183 T02390228

Radar Display
Forecast Discussion